sensor_id;sensor_type;location;lat;lon;timestamp;P1;durP1;ratioP1;P2;durP2;ratioP2
8735;SDS011;4404;49.308;12.178;2022-10-23T00:03:51;0.80;;;0.80;;
8735;SDS011;4404;49.308;12.178;2022-10-23T00:09:55;0.80;;;0.80;;
8735;SDS011;4404;49.308;12.178;2022-10-23T00:16:00;0.80;;;0.80;;
8735;SDS011;4404;49.308;12.178;2022-10-23T00:22:03;0.80;;;0.80;;
8735;SDS011;4404;49.308;12.178;2022-10-23T00:28:07;0.70;;;0.70;;
8735;SDS011;4404;49.308;12.178;2022-10-23T00:34:10;0.90;;;0.90;;
8735;SDS011;4404;49.308;12.178;2022-10-23T00:40:14;0.80;;;0.80;;
8735;SDS011;4404;49.308;12.178;2022-10-23T00:46:18;0.80;;;0.80;;
8735;SDS011;4404;49.308;12.178;2022-10-23T00:52:20;0.80;;;0.80;;
8735;SDS011;4404;49.308;12.178;2022-10-23T00:58:24;0.70;;;0.70;;
8735;SDS011;4404;49.308;12.178;2022-10-23T01:04:26;0.80;;;0.80;;
8735;SDS011;4404;49.308;12.178;2022-10-23T01:10:31;0.80;;;0.80;;
8735;SDS011;4404;49.308;12.178;2022-10-23T01:16:40;0.80;;;0.80;;
8735;SDS011;4404;49.308;12.178;2022-10-23T01:29:33;0.80;;;0.80;;
8735;SDS011;4404;49.308;12.178;2022-10-23T01:35:43;0.80;;;0.80;;
8735;SDS011;4404;49.308;12.178;2022-10-23T01:41:51;0.70;;;0.70;;
8735;SDS011;4404;49.308;12.178;2022-10-23T01:48:00;0.80;;;0.80;;
8735;SDS011;4404;49.308;12.178;2022-10-23T01:54:09;0.80;;;0.80;;
8735;SDS011;4404;49.308;12.178;2022-10-23T02:00:15;0.80;;;0.80;;
8735;SDS011;4404;49.308;12.178;2022-10-23T02:06:21;0.80;;;0.80;;
8735;SDS011;4404;49.308;12.178;2022-10-23T02:12:26;0.80;;;0.80;;
8735;SDS011;4404;49.308;12.178;2022-10-23T02:18:37;0.80;;;0.80;;
8735;SDS011;4404;49.308;12.178;2022-10-23T02:24:49;0.90;;;0.90;;
8735;SDS011;4404;49.308;12.178;2022-10-23T02:30:56;0.70;;;0.70;;
8735;SDS011;4404;49.308;12.178;2022-10-23T02:37:02;0.80;;;0.80;;
8735;SDS011;4404;49.308;12.178;2022-10-23T02:43:07;0.80;;;0.80;;
8735;SDS011;4404;49.308;12.178;2022-10-23T02:49:18;0.80;;;0.80;;
8735;SDS011;4404;49.308;12.178;2022-10-23T02:55:30;0.80;;;0.80;;
8735;SDS011;4404;49.308;12.178;2022-10-23T03:01:44;0.87;;;0.87;;
8735;SDS011;4404;49.308;12.178;2022-10-23T03:07:52;0.80;;;0.80;;
8735;SDS011;4404;49.308;12.178;2022-10-23T03:13:55;0.80;;;0.80;;
8735;SDS011;4404;49.308;12.178;2022-10-23T03:19:59;0.80;;;0.80;;
8735;SDS011;4404;49.308;12.178;2022-10-23T03:26:01;0.80;;;0.80;;
8735;SDS011;4404;49.308;12.178;2022-10-23T03:32:05;0.80;;;0.80;;
8735;SDS011;4404;49.308;12.178;2022-10-23T03:38:08;0.80;;;0.80;;
8735;SDS011;4404;49.308;12.178;2022-10-23T03:44:11;0.80;;;0.80;;
8735;SDS011;4404;49.308;12.178;2022-10-23T03:50:13;0.80;;;0.80;;
8735;SDS011;4404;49.308;12.178;2022-10-23T03:56:17;0.80;;;0.80;;
8735;SDS011;4404;49.308;12.178;2022-10-23T04:02:19;0.80;;;0.80;;
8735;SDS011;4404;49.308;12.178;2022-10-23T04:08:22;0.80;;;0.80;;
8735;SDS011;4404;49.308;12.178;2022-10-23T04:14:26;0.80;;;0.80;;
8735;SDS011;4404;49.308;12.178;2022-10-23T04:20:28;0.80;;;0.80;;
8735;SDS011;4404;49.308;12.178;2022-10-23T04:26:31;0.80;;;0.80;;
8735;SDS011;4404;49.308;12.178;2022-10-23T04:32:35;0.80;;;0.80;;
8735;SDS011;4404;49.308;12.178;2022-10-23T04:38:37;0.80;;;0.80;;
8735;SDS011;4404;49.308;12.178;2022-10-23T04:44:39;0.70;;;0.70;;
8735;SDS011;4404;49.308;12.178;2022-10-23T04:50:44;0.80;;;0.80;;
8735;SDS011;4404;49.308;12.178;2022-10-23T04:56:56;0.90;;;0.90;;
8735;SDS011;4404;49.308;12.178;2022-10-23T05:02:59;0.80;;;0.80;;
8735;SDS011;4404;49.308;12.178;2022-10-23T05:09:02;0.80;;;0.80;;
8735;SDS011;4404;49.308;12.178;2022-10-23T05:15:21;0.80;;;0.80;;
8735;SDS011;4404;49.308;12.178;2022-10-23T05:21:25;0.80;;;0.80;;
8735;SDS011;4404;49.308;12.178;2022-10-23T05:27:32;0.80;;;0.80;;
8735;SDS011;4404;49.308;12.178;2022-10-23T05:33:34;0.80;;;0.80;;
8735;SDS011;4404;49.308;12.178;2022-10-23T05:39:37;0.80;;;0.80;;
8735;SDS011;4404;49.308;12.178;2022-10-23T05:45:41;0.80;;;0.80;;
8735;SDS011;4404;49.308;12.178;2022-10-23T05:51:44;0.90;;;0.90;;
8735;SDS011;4404;49.308;12.178;2022-10-23T05:57:47;0.80;;;0.80;;
8735;SDS011;4404;49.308;12.178;2022-10-23T06:03:51;0.80;;;0.80;;
8735;SDS011;4404;49.308;12.178;2022-10-23T06:17:09;0.80;;;0.80;;
8735;SDS011;4404;49.308;12.178;2022-10-23T06:23:15;0.80;;;0.80;;
8735;SDS011;4404;49.308;12.178;2022-10-23T06:29:22;0.80;;;0.80;;
8735;SDS011;4404;49.308;12.178;2022-10-23T06:35:25;0.80;;;0.80;;
8735;SDS011;4404;49.308;12.178;2022-10-23T06:41:28;0.80;;;0.80;;
8735;SDS011;4404;49.308;12.178;2022-10-23T06:47:31;0.80;;;0.80;;
8735;SDS011;4404;49.308;12.178;2022-10-23T07:00:50;0.80;;;0.80;;
8735;SDS011;4404;49.308;12.178;2022-10-23T07:06:53;0.80;;;0.80;;
8735;SDS011;4404;49.308;12.178;2022-10-23T07:12:57;0.80;;;0.80;;
8735;SDS011;4404;49.308;12.178;2022-10-23T07:19:01;0.80;;;0.80;;
8735;SDS011;4404;49.308;12.178;2022-10-23T07:25:06;0.80;;;0.80;;
8735;SDS011;4404;49.308;12.178;2022-10-23T07:31:09;0.80;;;0.80;;
8735;SDS011;4404;49.308;12.178;2022-10-23T07:37:13;0.80;;;0.80;;
8735;SDS011;4404;49.308;12.178;2022-10-23T07:43:16;0.80;;;0.80;;
8735;SDS011;4404;49.308;12.178;2022-10-23T07:49:19;0.80;;;0.80;;
8735;SDS011;4404;49.308;12.178;2022-10-23T07:55:23;0.80;;;0.80;;
8735;SDS011;4404;49.308;12.178;2022-10-23T08:01:27;0.80;;;0.80;;
8735;SDS011;4404;49.308;12.178;2022-10-23T08:07:32;0.80;;;0.80;;
8735;SDS011;4404;49.308;12.178;2022-10-23T08:13:36;0.80;;;0.80;;
8735;SDS011;4404;49.308;12.178;2022-10-23T08:19:38;0.80;;;0.80;;
8735;SDS011;4404;49.308;12.178;2022-10-23T08:25:46;0.80;;;0.80;;
8735;SDS011;4404;49.308;12.178;2022-10-23T08:31:52;0.80;;;0.80;;
8735;SDS011;4404;49.308;12.178;2022-10-23T08:37:56;0.80;;;0.80;;
8735;SDS011;4404;49.308;12.178;2022-10-23T08:44:00;0.80;;;0.80;;
8735;SDS011;4404;49.308;12.178;2022-10-23T08:50:11;0.80;;;0.80;;
8735;SDS011;4404;49.308;12.178;2022-10-23T08:56:21;0.80;;;0.80;;
8735;SDS011;4404;49.308;12.178;2022-10-23T09:02:28;0.80;;;0.80;;
8735;SDS011;4404;49.308;12.178;2022-10-23T09:08:42;0.80;;;0.80;;
8735;SDS011;4404;49.308;12.178;2022-10-23T09:14:56;0.80;;;0.80;;
8735;SDS011;4404;49.308;12.178;2022-10-23T09:21:16;0.80;;;0.80;;
8735;SDS011;4404;49.308;12.178;2022-10-23T09:27:21;0.70;;;0.70;;
8735;SDS011;4404;49.308;12.178;2022-10-23T09:33:24;0.80;;;0.80;;
8735;SDS011;4404;49.308;12.178;2022-10-23T09:39:30;0.77;;;0.77;;
8735;SDS011;4404;49.308;12.178;2022-10-23T09:45:36;0.80;;;0.80;;
8735;SDS011;4404;49.308;12.178;2022-10-23T09:51:46;0.80;;;0.80;;
8735;SDS011;4404;49.308;12.178;2022-10-23T09:58:00;0.70;;;0.70;;
8735;SDS011;4404;49.308;12.178;2022-10-23T10:04:04;0.80;;;0.80;;
8735;SDS011;4404;49.308;12.178;2022-10-23T10:10:09;0.60;;;0.60;;
8735;SDS011;4404;49.308;12.178;2022-10-23T10:16:19;0.70;;;0.70;;
8735;SDS011;4404;49.308;12.178;2022-10-23T10:22:31;0.70;;;0.70;;
8735;SDS011;4404;49.308;12.178;2022-10-23T10:28:44;0.80;;;0.80;;
8735;SDS011;4404;49.308;12.178;2022-10-23T10:35:02;0.80;;;0.80;;
8735;SDS011;4404;49.308;12.178;2022-10-23T10:47:52;0.70;;;0.70;;
8735;SDS011;4404;49.308;12.178;2022-10-23T10:54:24;0.80;;;0.80;;
8735;SDS011;4404;49.308;12.178;2022-10-23T11:00:40;0.70;;;0.70;;
8735;SDS011;4404;49.308;12.178;2022-10-23T11:06:45;0.70;;;0.70;;
8735;SDS011;4404;49.308;12.178;2022-10-23T11:12:53;0.80;;;0.80;;
8735;SDS011;4404;49.308;12.178;2022-10-23T11:19:00;0.70;;;0.70;;
8735;SDS011;4404;49.308;12.178;2022-10-23T11:25:21;0.70;;;0.70;;
8735;SDS011;4404;49.308;12.178;2022-10-23T11:32:10;0.70;;;0.70;;
8735;SDS011;4404;49.308;12.178;2022-10-23T11:38:27;0.70;;;0.70;;
8735;SDS011;4404;49.308;12.178;2022-10-23T11:44:39;0.70;;;0.70;;
8735;SDS011;4404;49.308;12.178;2022-10-23T11:50:51;0.60;;;0.60;;
8735;SDS011;4404;49.308;12.178;2022-10-23T12:03:23;0.77;;;0.77;;
8735;SDS011;4404;49.308;12.178;2022-10-23T12:09:33;0.70;;;0.70;;
8735;SDS011;4404;49.308;12.178;2022-10-23T12:15:43;0.70;;;0.70;;
8735;SDS011;4404;49.308;12.178;2022-10-23T12:21:56;0.70;;;0.70;;
8735;SDS011;4404;49.308;12.178;2022-10-23T12:28:02;0.63;;;0.63;;
8735;SDS011;4404;49.308;12.178;2022-10-23T12:34:19;0.60;;;0.60;;
8735;SDS011;4404;49.308;12.178;2022-10-23T12:40:33;0.70;;;0.70;;
8735;SDS011;4404;49.308;12.178;2022-10-23T12:46:38;0.60;;;0.60;;
8735;SDS011;4404;49.308;12.178;2022-10-23T12:52:50;0.70;;;0.70;;
8735;SDS011;4404;49.308;12.178;2022-10-23T12:58:55;0.70;;;0.70;;
8735;SDS011;4404;49.308;12.178;2022-10-23T13:05:02;0.70;;;0.70;;
8735;SDS011;4404;49.308;12.178;2022-10-23T13:11:10;0.60;;;0.60;;
8735;SDS011;4404;49.308;12.178;2022-10-23T13:17:16;0.60;;;0.60;;
8735;SDS011;4404;49.308;12.178;2022-10-23T13:23:21;0.70;;;0.70;;
8735;SDS011;4404;49.308;12.178;2022-10-23T13:29:32;0.70;;;0.70;;
8735;SDS011;4404;49.308;12.178;2022-10-23T13:35:35;0.70;;;0.70;;
8735;SDS011;4404;49.308;12.178;2022-10-23T13:41:39;0.70;;;0.70;;
8735;SDS011;4404;49.308;12.178;2022-10-23T13:47:46;0.70;;;0.70;;
8735;SDS011;4404;49.308;12.178;2022-10-23T13:53:48;0.60;;;0.60;;
8735;SDS011;4404;49.308;12.178;2022-10-23T13:59:52;0.60;;;0.60;;
8735;SDS011;4404;49.308;12.178;2022-10-23T14:05:55;0.60;;;0.60;;
8735;SDS011;4404;49.308;12.178;2022-10-23T14:11:58;0.70;;;0.70;;
8735;SDS011;4404;49.308;12.178;2022-10-23T14:18:00;0.70;;;0.70;;
8735;SDS011;4404;49.308;12.178;2022-10-23T14:24:05;0.60;;;0.60;;
8735;SDS011;4404;49.308;12.178;2022-10-23T14:30:08;0.60;;;0.60;;
8735;SDS011;4404;49.308;12.178;2022-10-23T14:36:11;0.70;;;0.70;;
8735;SDS011;4404;49.308;12.178;2022-10-23T14:42:16;0.60;;;0.60;;
8735;SDS011;4404;49.308;12.178;2022-10-23T14:48:18;0.60;;;0.60;;
8735;SDS011;4404;49.308;12.178;2022-10-23T14:54:21;0.70;;;0.70;;
8735;SDS011;4404;49.308;12.178;2022-10-23T15:00:25;0.60;;;0.60;;
8735;SDS011;4404;49.308;12.178;2022-10-23T15:06:27;0.57;;;0.57;;
8735;SDS011;4404;49.308;12.178;2022-10-23T15:12:29;0.70;;;0.70;;
8735;SDS011;4404;49.308;12.178;2022-10-23T15:18:34;0.60;;;0.60;;
8735;SDS011;4404;49.308;12.178;2022-10-23T15:24:37;0.70;;;0.70;;
8735;SDS011;4404;49.308;12.178;2022-10-23T15:30:40;0.70;;;0.70;;
8735;SDS011;4404;49.308;12.178;2022-10-23T15:36:46;0.70;;;0.70;;
8735;SDS011;4404;49.308;12.178;2022-10-23T15:42:50;0.70;;;0.70;;
8735;SDS011;4404;49.308;12.178;2022-10-23T15:48:52;0.70;;;0.70;;
8735;SDS011;4404;49.308;12.178;2022-10-23T15:54:56;0.70;;;0.70;;
8735;SDS011;4404;49.308;12.178;2022-10-23T16:01:00;0.70;;;0.70;;
8735;SDS011;4404;49.308;12.178;2022-10-23T16:07:05;0.70;;;0.70;;
8735;SDS011;4404;49.308;12.178;2022-10-23T16:13:09;0.60;;;0.60;;
8735;SDS011;4404;49.308;12.178;2022-10-23T16:19:12;0.70;;;0.70;;
8735;SDS011;4404;49.308;12.178;2022-10-23T16:25:14;0.80;;;0.80;;
8735;SDS011;4404;49.308;12.178;2022-10-23T16:31:18;0.70;;;0.70;;
8735;SDS011;4404;49.308;12.178;2022-10-23T16:37:22;0.70;;;0.70;;
8735;SDS011;4404;49.308;12.178;2022-10-23T16:43:25;0.70;;;0.70;;
8735;SDS011;4404;49.308;12.178;2022-10-23T16:49:30;0.70;;;0.70;;
8735;SDS011;4404;49.308;12.178;2022-10-23T16:55:33;0.70;;;0.70;;
8735;SDS011;4404;49.308;12.178;2022-10-23T17:01:36;0.70;;;0.70;;
8735;SDS011;4404;49.308;12.178;2022-10-23T17:07:40;0.70;;;0.70;;
8735;SDS011;4404;49.308;12.178;2022-10-23T17:13:44;0.80;;;0.80;;
8735;SDS011;4404;49.308;12.178;2022-10-23T17:19:49;0.80;;;0.80;;
8735;SDS011;4404;49.308;12.178;2022-10-23T17:25:53;0.70;;;0.70;;
8735;SDS011;4404;49.308;12.178;2022-10-23T17:31:56;0.70;;;0.70;;
8735;SDS011;4404;49.308;12.178;2022-10-23T17:37:59;0.80;;;0.80;;
8735;SDS011;4404;49.308;12.178;2022-10-23T17:44:03;0.70;;;0.70;;
8735;SDS011;4404;49.308;12.178;2022-10-23T17:50:06;0.70;;;0.70;;
8735;SDS011;4404;49.308;12.178;2022-10-23T17:56:11;0.70;;;0.70;;
8735;SDS011;4404;49.308;12.178;2022-10-23T18:02:19;0.70;;;0.70;;
8735;SDS011;4404;49.308;12.178;2022-10-23T18:08:22;0.60;;;0.60;;
8735;SDS011;4404;49.308;12.178;2022-10-23T18:14:25;0.70;;;0.70;;
8735;SDS011;4404;49.308;12.178;2022-10-23T18:20:28;0.70;;;0.70;;
8735;SDS011;4404;49.308;12.178;2022-10-23T18:26:31;0.70;;;0.70;;
8735;SDS011;4404;49.308;12.178;2022-10-23T18:32:36;0.80;;;0.80;;
8735;SDS011;4404;49.308;12.178;2022-10-23T18:38:40;0.70;;;0.70;;
8735;SDS011;4404;49.308;12.178;2022-10-23T18:44:48;0.70;;;0.70;;
8735;SDS011;4404;49.308;12.178;2022-10-23T18:50:51;0.70;;;0.70;;
8735;SDS011;4404;49.308;12.178;2022-10-23T18:56:54;0.70;;;0.70;;
8735;SDS011;4404;49.308;12.178;2022-10-23T19:02:57;0.70;;;0.70;;
8735;SDS011;4404;49.308;12.178;2022-10-23T19:08:59;0.70;;;0.70;;
8735;SDS011;4404;49.308;12.178;2022-10-23T19:15:04;0.80;;;0.80;;
8735;SDS011;4404;49.308;12.178;2022-10-23T19:21:07;0.80;;;0.80;;
8735;SDS011;4404;49.308;12.178;2022-10-23T19:27:10;0.70;;;0.70;;
8735;SDS011;4404;49.308;12.178;2022-10-23T19:33:15;0.73;;;0.73;;
8735;SDS011;4404;49.308;12.178;2022-10-23T19:39:17;0.70;;;0.70;;
8735;SDS011;4404;49.308;12.178;2022-10-23T19:45:20;0.70;;;0.70;;
8735;SDS011;4404;49.308;12.178;2022-10-23T19:51:26;0.80;;;0.80;;
8735;SDS011;4404;49.308;12.178;2022-10-23T19:57:29;0.70;;;0.70;;
8735;SDS011;4404;49.308;12.178;2022-10-23T20:03:33;0.70;;;0.70;;
8735;SDS011;4404;49.308;12.178;2022-10-23T20:09:38;0.77;;;0.77;;
8735;SDS011;4404;49.308;12.178;2022-10-23T20:15:41;0.70;;;0.70;;
8735;SDS011;4404;49.308;12.178;2022-10-23T20:21:49;0.70;;;0.70;;
8735;SDS011;4404;49.308;12.178;2022-10-23T20:27:53;0.70;;;0.70;;
8735;SDS011;4404;49.308;12.178;2022-10-23T20:33:55;0.70;;;0.70;;
8735;SDS011;4404;49.308;12.178;2022-10-23T20:39:58;0.70;;;0.70;;
8735;SDS011;4404;49.308;12.178;2022-10-23T20:46:03;0.70;;;0.70;;
8735;SDS011;4404;49.308;12.178;2022-10-23T20:52:12;0.70;;;0.70;;
8735;SDS011;4404;49.308;12.178;2022-10-23T20:58:17;0.70;;;0.70;;
8735;SDS011;4404;49.308;12.178;2022-10-23T21:04:23;0.70;;;0.70;;
8735;SDS011;4404;49.308;12.178;2022-10-23T21:10:28;0.70;;;0.70;;
8735;SDS011;4404;49.308;12.178;2022-10-23T21:16:31;0.70;;;0.70;;
8735;SDS011;4404;49.308;12.178;2022-10-23T21:22:37;0.70;;;0.70;;
8735;SDS011;4404;49.308;12.178;2022-10-23T21:28:42;0.60;;;0.60;;
8735;SDS011;4404;49.308;12.178;2022-10-23T21:34:45;0.70;;;0.70;;
8735;SDS011;4404;49.308;12.178;2022-10-23T21:40:50;0.80;;;0.80;;
8735;SDS011;4404;49.308;12.178;2022-10-23T21:46:52;0.77;;;0.77;;
8735;SDS011;4404;49.308;12.178;2022-10-23T21:52:55;0.70;;;0.70;;
8735;SDS011;4404;49.308;12.178;2022-10-23T21:58:59;0.70;;;0.70;;
8735;SDS011;4404;49.308;12.178;2022-10-23T22:05:03;0.70;;;0.70;;
8735;SDS011;4404;49.308;12.178;2022-10-23T22:11:06;0.70;;;0.70;;
8735;SDS011;4404;49.308;12.178;2022-10-23T22:17:12;0.70;;;0.70;;
8735;SDS011;4404;49.308;12.178;2022-10-23T22:23:14;0.67;;;0.67;;
8735;SDS011;4404;49.308;12.178;2022-10-23T22:29:18;0.70;;;0.70;;
8735;SDS011;4404;49.308;12.178;2022-10-23T22:35:23;0.70;;;0.70;;
8735;SDS011;4404;49.308;12.178;2022-10-23T22:41:26;0.70;;;0.70;;
8735;SDS011;4404;49.308;12.178;2022-10-23T22:47:28;0.70;;;0.70;;
8735;SDS011;4404;49.308;12.178;2022-10-23T22:53:32;0.60;;;0.60;;
8735;SDS011;4404;49.308;12.178;2022-10-23T22:59:35;0.70;;;0.70;;
8735;SDS011;4404;49.308;12.178;2022-10-23T23:05:39;0.70;;;0.70;;
8735;SDS011;4404;49.308;12.178;2022-10-23T23:11:45;0.70;;;0.70;;
8735;SDS011;4404;49.308;12.178;2022-10-23T23:17:50;0.73;;;0.73;;
8735;SDS011;4404;49.308;12.178;2022-10-23T23:23:52;0.70;;;0.70;;
8735;SDS011;4404;49.308;12.178;2022-10-23T23:29:56;0.70;;;0.70;;
8735;SDS011;4404;49.308;12.178;2022-10-23T23:35:58;0.70;;;0.70;;
8735;SDS011;4404;49.308;12.178;2022-10-23T23:42:01;0.70;;;0.70;;
8735;SDS011;4404;49.308;12.178;2022-10-23T23:48:06;0.70;;;0.70;;
8735;SDS011;4404;49.308;12.178;2022-10-23T23:54:08;0.80;;;0.80;;
